sensor_id;sensor_type;location;lat;lon;timestamp;P1;P2;P0
74880;PMS5003;63427;49.654;6.596;2022-10-16T00:01:47;2;2;
74880;PMS5003;63427;49.654;6.596;2022-10-16T00:04:12;2;2;
74880;PMS5003;63427;49.654;6.596;2022-10-16T00:06:38;4;4;
74880;PMS5003;63427;49.654;6.596;2022-10-16T00:09:03;4;3;
74880;PMS5003;63427;49.654;6.596;2022-10-16T00:11:29;3;3;
74880;PMS5003;63427;49.654;6.596;2022-10-16T00:13:54;3;3;
74880;PMS5003;63427;49.654;6.596;2022-10-16T00:16:19;4;4;
74880;PMS5003;63427;49.654;6.596;2022-10-16T00:18:44;3;3;
74880;PMS5003;63427;49.654;6.596;2022-10-16T00:21:10;3;3;
74880;PMS5003;63427;49.654;6.596;2022-10-16T00:23:35;3;3;
74880;PMS5003;63427;49.654;6.596;2022-10-16T00:26:01;4;4;
74880;PMS5003;63427;49.654;6.596;2022-10-16T00:28:25;1;1;
74880;PMS5003;63427;49.654;6.596;2022-10-16T00:30:51;4;4;
74880;PMS5003;63427;49.654;6.596;2022-10-16T00:33:16;2;2;
74880;PMS5003;63427;49.654;6.596;2022-10-16T00:35:41;3;3;
74880;PMS5003;63427;49.654;6.596;2022-10-16T00:38:06;3;3;
74880;PMS5003;63427;49.654;6.596;2022-10-16T00:40:31;2;2;
74880;PMS5003;63427;49.654;6.596;2022-10-16T00:42:57;3;3;
74880;PMS5003;63427;49.654;6.596;2022-10-16T00:45:22;3;3;
74880;PMS5003;63427;49.654;6.596;2022-10-16T00:47:47;3;3;
74880;PMS5003;63427;49.654;6.596;2022-10-16T00:50:17;3;2;
74880;PMS5003;63427;49.654;6.596;2022-10-16T00:52:39;1;1;
74880;PMS5003;63427;49.654;6.596;2022-10-16T00:55:04;1;1;
74880;PMS5003;63427;49.654;6.596;2022-10-16T00:57:29;0;0;
74880;PMS5003;63427;49.654;6.596;2022-10-16T00:59:54;1;1;
74880;PMS5003;63427;49.654;6.596;2022-10-16T01:02:20;2;2;
74880;PMS5003;63427;49.654;6.596;2022-10-16T01:04:46;0;0;
74880;PMS5003;63427;49.654;6.596;2022-10-16T01:07:12;1;1;
74880;PMS5003;63427;49.654;6.596;2022-10-16T01:09:37;1;0;
74880;PMS5003;63427;49.654;6.596;2022-10-16T01:12:03;2;2;
74880;PMS5003;63427;49.654;6.596;2022-10-16T01:14:27;1;1;
74880;PMS5003;63427;49.654;6.596;2022-10-16T01:16:53;1;1;
74880;PMS5003;63427;49.654;6.596;2022-10-16T01:19:19;1;1;
74880;PMS5003;63427;49.654;6.596;2022-10-16T01:21:43;0;0;
74880;PMS5003;63427;49.654;6.596;2022-10-16T01:24:08;1;1;
74880;PMS5003;63427;49.654;6.596;2022-10-16T01:26:37;1;1;
74880;PMS5003;63427;49.654;6.596;2022-10-16T01:28:59;2;2;
74880;PMS5003;63427;49.654;6.596;2022-10-16T01:31:24;0;0;
74880;PMS5003;63427;49.654;6.596;2022-10-16T01:33:50;1;1;
74880;PMS5003;63427;49.654;6.596;2022-10-16T01:36:14;1;0;
74880;PMS5003;63427;49.654;6.596;2022-10-16T01:38:39;1;1;
74880;PMS5003;63427;49.654;6.596;2022-10-16T01:41:06;1;1;
74880;PMS5003;63427;49.654;6.596;2022-10-16T01:43:31;1;1;
74880;PMS5003;63427;49.654;6.596;2022-10-16T01:45:55;1;1;
74880;PMS5003;63427;49.654;6.596;2022-10-16T01:48:20;1;1;
74880;PMS5003;63427;49.654;6.596;2022-10-16T01:50:49;1;0;
74880;PMS5003;63427;49.654;6.596;2022-10-16T01:53:11;1;1;
74880;PMS5003;63427;49.654;6.596;2022-10-16T01:55:37;1;1;
74880;PMS5003;63427;49.654;6.596;2022-10-16T01:58:01;1;1;
74880;PMS5003;63427;49.654;6.596;2022-10-16T02:00:26;1;1;
74880;PMS5003;63427;49.654;6.596;2022-10-16T02:02:52;1;1;
74880;PMS5003;63427;49.654;6.596;2022-10-16T02:05:18;1;1;
74880;PMS5003;63427;49.654;6.596;2022-10-16T02:07:42;1;1;
74880;PMS5003;63427;49.654;6.596;2022-10-16T02:10:07;1;1;
74880;PMS5003;63427;49.654;6.596;2022-10-16T02:12:33;2;1;
74880;PMS5003;63427;49.654;6.596;2022-10-16T02:14:58;1;1;
74880;PMS5003;63427;49.654;6.596;2022-10-16T02:17:24;1;1;
74880;PMS5003;63427;49.654;6.596;2022-10-16T02:19:49;1;1;
74880;PMS5003;63427;49.654;6.596;2022-10-16T02:22:15;1;1;
74880;PMS5003;63427;49.654;6.596;2022-10-16T02:24:41;2;2;
74880;PMS5003;63427;49.654;6.596;2022-10-16T02:27:05;2;2;
74880;PMS5003;63427;49.654;6.596;2022-10-16T02:29:30;1;1;
74880;PMS5003;63427;49.654;6.596;2022-10-16T02:31:56;1;1;
74880;PMS5003;63427;49.654;6.596;2022-10-16T02:34:20;0;0;
74880;PMS5003;63427;49.654;6.596;2022-10-16T02:36:45;1;1;
74880;PMS5003;63427;49.654;6.596;2022-10-16T02:39:11;0;0;
74880;PMS5003;63427;49.654;6.596;2022-10-16T02:41:36;2;2;
74880;PMS5003;63427;49.654;6.596;2022-10-16T02:44:01;0;0;
74880;PMS5003;63427;49.654;6.596;2022-10-16T02:46:26;2;2;
74880;PMS5003;63427;49.654;6.596;2022-10-16T02:48:52;2;2;
74880;PMS5003;63427;49.654;6.596;2022-10-16T02:51:17;1;1;
74880;PMS5003;63427;49.654;6.596;2022-10-16T02:53:42;0;0;
74880;PMS5003;63427;49.654;6.596;2022-10-16T02:56:07;2;2;
74880;PMS5003;63427;49.654;6.596;2022-10-16T02:58:33;0;0;
74880;PMS5003;63427;49.654;6.596;2022-10-16T03:00:58;0;0;
74880;PMS5003;63427;49.654;6.596;2022-10-16T03:03:23;1;1;
74880;PMS5003;63427;49.654;6.596;2022-10-16T03:05:48;1;1;
74880;PMS5003;63427;49.654;6.596;2022-10-16T03:08:14;1;1;
74880;PMS5003;63427;49.654;6.596;2022-10-16T03:10:39;2;2;
74880;PMS5003;63427;49.654;6.596;2022-10-16T03:13:04;1;1;
74880;PMS5003;63427;49.654;6.596;2022-10-16T03:15:30;1;1;
74880;PMS5003;63427;49.654;6.596;2022-10-16T03:17:57;2;1;
74880;PMS5003;63427;49.654;6.596;2022-10-16T03:20:20;2;2;
74880;PMS5003;63427;49.654;6.596;2022-10-16T03:22:45;2;2;
74880;PMS5003;63427;49.654;6.596;2022-10-16T03:25:11;1;1;
74880;PMS5003;63427;49.654;6.596;2022-10-16T03:27:36;1;1;
74880;PMS5003;63427;49.654;6.596;2022-10-16T03:30:02;2;2;
74880;PMS5003;63427;49.654;6.596;2022-10-16T03:32:27;1;1;
74880;PMS5003;63427;49.654;6.596;2022-10-16T03:34:52;0;0;
74880;PMS5003;63427;49.654;6.596;2022-10-16T03:37:17;2;2;
74880;PMS5003;63427;49.654;6.596;2022-10-16T03:39:42;0;0;
74880;PMS5003;63427;49.654;6.596;2022-10-16T03:42:08;2;1;
74880;PMS5003;63427;49.654;6.596;2022-10-16T03:44:33;1;1;
74880;PMS5003;63427;49.654;6.596;2022-10-16T03:46:58;1;1;
74880;PMS5003;63427;49.654;6.596;2022-10-16T03:49:23;2;2;
74880;PMS5003;63427;49.654;6.596;2022-10-16T03:51:49;1;1;
74880;PMS5003;63427;49.654;6.596;2022-10-16T03:54:14;0;0;
74880;PMS5003;63427;49.654;6.596;2022-10-16T03:56:39;0;0;
74880;PMS5003;63427;49.654;6.596;2022-10-16T03:59:04;0;0;
74880;PMS5003;63427;49.654;6.596;2022-10-16T04:01:30;1;1;
74880;PMS5003;63427;49.654;6.596;2022-10-16T04:03:56;0;0;
74880;PMS5003;63427;49.654;6.596;2022-10-16T04:06:21;1;1;
74880;PMS5003;63427;49.654;6.596;2022-10-16T04:08:46;0;0;
74880;PMS5003;63427;49.654;6.596;2022-10-16T04:11:11;1;1;
74880;PMS5003;63427;49.654;6.596;2022-10-16T04:13:37;1;1;
74880;PMS5003;63427;49.654;6.596;2022-10-16T04:16:02;0;0;
74880;PMS5003;63427;49.654;6.596;2022-10-16T04:18:27;1;1;
74880;PMS5003;63427;49.654;6.596;2022-10-16T04:20:53;0;0;
74880;PMS5003;63427;49.654;6.596;2022-10-16T04:23:18;0;0;
74880;PMS5003;63427;49.654;6.596;2022-10-16T04:25:44;0;0;
74880;PMS5003;63427;49.654;6.596;2022-10-16T04:28:08;1;1;
74880;PMS5003;63427;49.654;6.596;2022-10-16T04:30:34;0;0;
74880;PMS5003;63427;49.654;6.596;2022-10-16T04:32:59;1;1;
74880;PMS5003;63427;49.654;6.596;2022-10-16T04:35:24;1;1;
74880;PMS5003;63427;49.654;6.596;2022-10-16T04:37:49;0;0;
74880;PMS5003;63427;49.654;6.596;2022-10-16T04:40:15;0;0;
74880;PMS5003;63427;49.654;6.596;2022-10-16T04:42:40;1;0;
74880;PMS5003;63427;49.654;6.596;2022-10-16T04:45:06;1;1;
74880;PMS5003;63427;49.654;6.596;2022-10-16T04:47:30;0;0;
74880;PMS5003;63427;49.654;6.596;2022-10-16T04:49:56;0;0;
74880;PMS5003;63427;49.654;6.596;2022-10-16T04:52:21;0;0;
74880;PMS5003;63427;49.654;6.596;2022-10-16T04:54:46;1;1;
74880;PMS5003;63427;49.654;6.596;2022-10-16T04:57:12;0;0;
74880;PMS5003;63427;49.654;6.596;2022-10-16T04:59:37;0;0;
74880;PMS5003;63427;49.654;6.596;2022-10-16T05:02:02;0;0;
74880;PMS5003;63427;49.654;6.596;2022-10-16T05:04:27;0;0;
74880;PMS5003;63427;49.654;6.596;2022-10-16T05:06:53;1;0;
74880;PMS5003;63427;49.654;6.596;2022-10-16T05:09:18;0;0;
74880;PMS5003;63427;49.654;6.596;2022-10-16T05:11:43;1;1;
74880;PMS5003;63427;49.654;6.596;2022-10-16T05:14:08;1;1;
74880;PMS5003;63427;49.654;6.596;2022-10-16T05:16:34;1;1;
74880;PMS5003;63427;49.654;6.596;2022-10-16T05:18:59;0;0;
74880;PMS5003;63427;49.654;6.596;2022-10-16T05:21:24;0;0;
74880;PMS5003;63427;49.654;6.596;2022-10-16T05:23:49;1;1;
74880;PMS5003;63427;49.654;6.596;2022-10-16T05:26:15;0;0;
74880;PMS5003;63427;49.654;6.596;2022-10-16T05:28:40;1;1;
74880;PMS5003;63427;49.654;6.596;2022-10-16T05:31:05;1;1;
74880;PMS5003;63427;49.654;6.596;2022-10-16T05:33:31;1;1;
74880;PMS5003;63427;49.654;6.596;2022-10-16T05:35:56;1;1;
74880;PMS5003;63427;49.654;6.596;2022-10-16T05:38:21;1;1;
74880;PMS5003;63427;49.654;6.596;2022-10-16T05:40:50;0;0;
74880;PMS5003;63427;49.654;6.596;2022-10-16T05:43:12;1;1;
74880;PMS5003;63427;49.654;6.596;2022-10-16T05:45:37;1;1;
74880;PMS5003;63427;49.654;6.596;2022-10-16T05:48:02;1;1;
74880;PMS5003;63427;49.654;6.596;2022-10-16T05:50:27;1;1;
74880;PMS5003;63427;49.654;6.596;2022-10-16T05:52:53;2;2;
74880;PMS5003;63427;49.654;6.596;2022-10-16T05:55:18;1;1;
74880;PMS5003;63427;49.654;6.596;2022-10-16T05:57:43;1;1;
74880;PMS5003;63427;49.654;6.596;2022-10-16T06:00:09;1;1;
74880;PMS5003;63427;49.654;6.596;2022-10-16T06:02:34;1;1;
74880;PMS5003;63427;49.654;6.596;2022-10-16T06:04:59;2;2;
74880;PMS5003;63427;49.654;6.596;2022-10-16T06:07:24;1;1;
74880;PMS5003;63427;49.654;6.596;2022-10-16T06:09:50;1;1;
74880;PMS5003;63427;49.654;6.596;2022-10-16T06:12:15;1;1;
74880;PMS5003;63427;49.654;6.596;2022-10-16T06:14:40;3;3;
74880;PMS5003;63427;49.654;6.596;2022-10-16T06:17:05;1;1;
74880;PMS5003;63427;49.654;6.596;2022-10-16T06:19:31;2;2;
74880;PMS5003;63427;49.654;6.596;2022-10-16T06:21:56;2;2;
74880;PMS5003;63427;49.654;6.596;2022-10-16T06:24:21;2;2;
74880;PMS5003;63427;49.654;6.596;2022-10-16T06:26:46;2;2;
74880;PMS5003;63427;49.654;6.596;2022-10-16T06:29:12;4;4;
74880;PMS5003;63427;49.654;6.596;2022-10-16T06:31:37;4;4;
74880;PMS5003;63427;49.654;6.596;2022-10-16T06:34:02;6;6;
74880;PMS5003;63427;49.654;6.596;2022-10-16T06:36:27;6;6;
74880;PMS5003;63427;49.654;6.596;2022-10-16T06:38:53;8;5;
74880;PMS5003;63427;49.654;6.596;2022-10-16T06:41:18;3;3;
74880;PMS5003;63427;49.654;6.596;2022-10-16T06:43:44;4;4;
74880;PMS5003;63427;49.654;6.596;2022-10-16T06:46:09;1;1;
74880;PMS5003;63427;49.654;6.596;2022-10-16T06:48:34;2;2;
74880;PMS5003;63427;49.654;6.596;2022-10-16T06:50:59;4;3;
74880;PMS5003;63427;49.654;6.596;2022-10-16T06:53:24;9;9;
74880;PMS5003;63427;49.654;6.596;2022-10-16T06:55:50;8;8;
74880;PMS5003;63427;49.654;6.596;2022-10-16T06:58:15;6;6;
74880;PMS5003;63427;49.654;6.596;2022-10-16T07:00:40;8;8;
74880;PMS5003;63427;49.654;6.596;2022-10-16T07:03:05;6;6;
74880;PMS5003;63427;49.654;6.596;2022-10-16T07:05:31;5;5;
74880;PMS5003;63427;49.654;6.596;2022-10-16T07:07:56;4;4;
74880;PMS5003;63427;49.654;6.596;2022-10-16T07:10:21;5;5;
74880;PMS5003;63427;49.654;6.596;2022-10-16T07:12:46;4;4;
74880;PMS5003;63427;49.654;6.596;2022-10-16T07:15:12;10;8;
74880;PMS5003;63427;49.654;6.596;2022-10-16T07:17:37;24;24;
74880;PMS5003;63427;49.654;6.596;2022-10-16T07:20:02;12;12;
74880;PMS5003;63427;49.654;6.596;2022-10-16T07:22:28;8;8;
74880;PMS5003;63427;49.654;6.596;2022-10-16T07:24:53;8;8;
74880;PMS5003;63427;49.654;6.596;2022-10-16T07:27:19;5;5;
74880;PMS5003;63427;49.654;6.596;2022-10-16T07:29:44;4;4;
74880;PMS5003;63427;49.654;6.596;2022-10-16T07:32:09;4;4;
74880;PMS5003;63427;49.654;6.596;2022-10-16T07:34:35;3;3;
74880;PMS5003;63427;49.654;6.596;2022-10-16T07:37:00;6;5;
74880;PMS5003;63427;49.654;6.596;2022-10-16T07:39:25;5;5;
74880;PMS5003;63427;49.654;6.596;2022-10-16T07:41:50;3;2;
74880;PMS5003;63427;49.654;6.596;2022-10-16T07:44:15;5;3;
74880;PMS5003;63427;49.654;6.596;2022-10-16T07:46:41;2;2;
74880;PMS5003;63427;49.654;6.596;2022-10-16T07:49:06;4;4;
74880;PMS5003;63427;49.654;6.596;2022-10-16T07:51:31;3;3;
74880;PMS5003;63427;49.654;6.596;2022-10-16T07:53:56;3;2;
74880;PMS5003;63427;49.654;6.596;2022-10-16T07:56:22;2;2;
74880;PMS5003;63427;49.654;6.596;2022-10-16T07:58:47;2;2;
74880;PMS5003;63427;49.654;6.596;2022-10-16T08:01:13;2;2;
74880;PMS5003;63427;49.654;6.596;2022-10-16T08:03:37;1;1;
74880;PMS5003;63427;49.654;6.596;2022-10-16T08:06:03;1;1;
74880;PMS5003;63427;49.654;6.596;2022-10-16T08:08:28;2;2;
74880;PMS5003;63427;49.654;6.596;2022-10-16T08:10:53;2;2;
74880;PMS5003;63427;49.654;6.596;2022-10-16T08:13:18;2;2;
74880;PMS5003;63427;49.654;6.596;2022-10-16T08:15:44;3;3;
74880;PMS5003;63427;49.654;6.596;2022-10-16T08:18:09;1;1;
74880;PMS5003;63427;49.654;6.596;2022-10-16T08:20:34;2;2;
74880;PMS5003;63427;49.654;6.596;2022-10-16T08:22:59;2;1;
74880;PMS5003;63427;49.654;6.596;2022-10-16T08:25:24;2;2;
74880;PMS5003;63427;49.654;6.596;2022-10-16T08:27:50;3;3;
74880;PMS5003;63427;49.654;6.596;2022-10-16T08:30:15;2;2;
74880;PMS5003;63427;49.654;6.596;2022-10-16T08:32:40;3;3;
74880;PMS5003;63427;49.654;6.596;2022-10-16T08:35:05;2;2;
74880;PMS5003;63427;49.654;6.596;2022-10-16T08:37:31;2;2;
74880;PMS5003;63427;49.654;6.596;2022-10-16T08:39:55;4;4;
74880;PMS5003;63427;49.654;6.596;2022-10-16T08:42:27;5;4;
74880;PMS5003;63427;49.654;6.596;2022-10-16T08:44:57;4;3;
74880;PMS5003;63427;49.654;6.596;2022-10-16T08:47:13;4;4;
74880;PMS5003;63427;49.654;6.596;2022-10-16T08:49:36;6;6;
74880;PMS5003;63427;49.654;6.596;2022-10-16T08:52:02;4;4;
74880;PMS5003;63427;49.654;6.596;2022-10-16T08:54:28;4;4;
74880;PMS5003;63427;49.654;6.596;2022-10-16T08:56:53;6;6;
74880;PMS5003;63427;49.654;6.596;2022-10-16T08:59:18;4;4;
74880;PMS5003;63427;49.654;6.596;2022-10-16T09:01:45;6;5;
74880;PMS5003;63427;49.654;6.596;2022-10-16T09:06:37;5;5;
74880;PMS5003;63427;49.654;6.596;2022-10-16T09:09:08;4;4;
74880;PMS5003;63427;49.654;6.596;2022-10-16T09:11:25;4;4;
74880;PMS5003;63427;49.654;6.596;2022-10-16T09:13:50;3;3;
74880;PMS5003;63427;49.654;6.596;2022-10-16T09:16:16;2;2;
74880;PMS5003;63427;49.654;6.596;2022-10-16T09:18:41;4;4;
74880;PMS5003;63427;49.654;6.596;2022-10-16T09:21:06;2;2;
74880;PMS5003;63427;49.654;6.596;2022-10-16T09:23:32;4;4;
74880;PMS5003;63427;49.654;6.596;2022-10-16T09:25:56;2;2;
74880;PMS5003;63427;49.654;6.596;2022-10-16T09:28:21;2;2;
74880;PMS5003;63427;49.654;6.596;2022-10-16T09:30:46;2;2;
74880;PMS5003;63427;49.654;6.596;2022-10-16T09:33:12;2;2;
74880;PMS5003;63427;49.654;6.596;2022-10-16T09:35:37;2;2;
74880;PMS5003;63427;49.654;6.596;2022-10-16T09:38:01;2;2;
74880;PMS5003;63427;49.654;6.596;2022-10-16T09:40:28;1;1;
74880;PMS5003;63427;49.654;6.596;2022-10-16T09:42:52;2;2;
74880;PMS5003;63427;49.654;6.596;2022-10-16T09:45:20;1;1;
74880;PMS5003;63427;49.654;6.596;2022-10-16T09:47:42;2;2;
74880;PMS5003;63427;49.654;6.596;2022-10-16T09:52:32;0;0;
74880;PMS5003;63427;49.654;6.596;2022-10-16T09:54:58;5;4;
74880;PMS5003;63427;49.654;6.596;2022-10-16T09:57:23;1;1;
74880;PMS5003;63427;49.654;6.596;2022-10-16T09:59:48;0;0;
74880;PMS5003;63427;49.654;6.596;2022-10-16T10:02:13;3;3;
74880;PMS5003;63427;49.654;6.596;2022-10-16T10:04:38;3;3;
74880;PMS5003;63427;49.654;6.596;2022-10-16T10:07:03;0;0;
74880;PMS5003;63427;49.654;6.596;2022-10-16T10:09:29;0;0;
74880;PMS5003;63427;49.654;6.596;2022-10-16T10:11:54;3;3;
74880;PMS5003;63427;49.654;6.596;2022-10-16T10:14:21;7;7;
74880;PMS5003;63427;49.654;6.596;2022-10-16T10:16:44;2;2;
74880;PMS5003;63427;49.654;6.596;2022-10-16T10:19:12;3;3;
74880;PMS5003;63427;49.654;6.596;2022-10-16T10:21:34;5;5;
74880;PMS5003;63427;49.654;6.596;2022-10-16T10:23:59;5;5;
74880;PMS5003;63427;49.654;6.596;2022-10-16T10:26:24;4;4;
74880;PMS5003;63427;49.654;6.596;2022-10-16T10:28:52;1;1;
74880;PMS5003;63427;49.654;6.596;2022-10-16T10:31:17;2;1;
74880;PMS5003;63427;49.654;6.596;2022-10-16T10:33:41;0;0;
74880;PMS5003;63427;49.654;6.596;2022-10-16T10:36:10;1;1;
74880;PMS5003;63427;49.654;6.596;2022-10-16T10:38:31;2;1;
74880;PMS5003;63427;49.654;6.596;2022-10-16T10:40:57;0;0;
74880;PMS5003;63427;49.654;6.596;2022-10-16T10:43:24;2;2;
74880;PMS5003;63427;49.654;6.596;2022-10-16T10:45:46;1;1;
74880;PMS5003;63427;49.654;6.596;2022-10-16T10:48:14;1;1;
74880;PMS5003;63427;49.654;6.596;2022-10-16T10:50:38;0;0;
74880;PMS5003;63427;49.654;6.596;2022-10-16T10:53:02;0;0;
74880;PMS5003;63427;49.654;6.596;2022-10-16T10:55:28;1;1;
74880;PMS5003;63427;49.654;6.596;2022-10-16T10:57:54;1;1;
74880;PMS5003;63427;49.654;6.596;2022-10-16T11:00:17;1;1;
74880;PMS5003;63427;49.654;6.596;2022-10-16T11:02:41;1;1;
74880;PMS5003;63427;49.654;6.596;2022-10-16T11:05:15;2;2;
74880;PMS5003;63427;49.654;6.596;2022-10-16T11:07:32;0;0;
74880;PMS5003;63427;49.654;6.596;2022-10-16T11:09:56;2;2;
74880;PMS5003;63427;49.654;6.596;2022-10-16T11:12:21;1;1;
74880;PMS5003;63427;49.654;6.596;2022-10-16T11:14:47;2;2;
74880;PMS5003;63427;49.654;6.596;2022-10-16T11:17:11;1;1;
74880;PMS5003;63427;49.654;6.596;2022-10-16T11:19:37;1;1;
74880;PMS5003;63427;49.654;6.596;2022-10-16T11:22:03;2;2;
74880;PMS5003;63427;49.654;6.596;2022-10-16T11:24:30;2;2;
74880;PMS5003;63427;49.654;6.596;2022-10-16T11:26:51;1;1;
74880;PMS5003;63427;49.654;6.596;2022-10-16T11:29:19;1;1;
74880;PMS5003;63427;49.654;6.596;2022-10-16T11:31:45;1;1;
74880;PMS5003;63427;49.654;6.596;2022-10-16T11:34:09;3;3;
74880;PMS5003;63427;49.654;6.596;2022-10-16T11:36:34;2;2;
74880;PMS5003;63427;49.654;6.596;2022-10-16T11:38:58;2;2;
74880;PMS5003;63427;49.654;6.596;2022-10-16T11:41:28;2;2;
74880;PMS5003;63427;49.654;6.596;2022-10-16T11:43:57;4;3;
74880;PMS5003;63427;49.654;6.596;2022-10-16T11:46:13;3;3;
74880;PMS5003;63427;49.654;6.596;2022-10-16T11:48:38;3;3;
74880;PMS5003;63427;49.654;6.596;2022-10-16T11:51:06;6;5;
74880;PMS5003;63427;49.654;6.596;2022-10-16T11:53:34;5;5;
74880;PMS5003;63427;49.654;6.596;2022-10-16T11:55:52;5;5;
74880;PMS5003;63427;49.654;6.596;2022-10-16T11:58:22;6;5;
74880;PMS5003;63427;49.654;6.596;2022-10-16T12:00:45;5;5;
74880;PMS5003;63427;49.654;6.596;2022-10-16T12:03:11;6;6;
74880;PMS5003;63427;49.654;6.596;2022-10-16T12:05:35;4;4;
74880;PMS5003;63427;49.654;6.596;2022-10-16T12:08:02;3;3;
74880;PMS5003;63427;49.654;6.596;2022-10-16T12:10:24;8;7;
74880;PMS5003;63427;49.654;6.596;2022-10-16T12:12:48;4;3;
74880;PMS5003;63427;49.654;6.596;2022-10-16T12:15:21;5;5;
74880;PMS5003;63427;49.654;6.596;2022-10-16T12:17:39;6;6;
74880;PMS5003;63427;49.654;6.596;2022-10-16T12:22:30;5;5;
74880;PMS5003;63427;49.654;6.596;2022-10-16T12:24:55;5;5;
74880;PMS5003;63427;49.654;6.596;2022-10-16T12:27:22;6;6;
74880;PMS5003;63427;49.654;6.596;2022-10-16T12:29:45;6;5;
74880;PMS5003;63427;49.654;6.596;2022-10-16T12:34:42;4;4;
74880;PMS5003;63427;49.654;6.596;2022-10-16T12:37:10;5;5;
74880;PMS5003;63427;49.654;6.596;2022-10-16T12:39:28;3;3;
74880;PMS5003;63427;49.654;6.596;2022-10-16T12:46:41;4;4;
74880;PMS5003;63427;49.654;6.596;2022-10-16T12:51:34;5;5;
74880;PMS5003;63427;49.654;6.596;2022-10-16T12:53:59;4;4;
74880;PMS5003;63427;49.654;6.596;2022-10-16T12:56:24;4;4;
74880;PMS5003;63427;49.654;6.596;2022-10-16T12:59:01;5;5;
74880;PMS5003;63427;49.654;6.596;2022-10-16T13:01:18;4;4;
74880;PMS5003;63427;49.654;6.596;2022-10-16T13:03:49;4;4;
74880;PMS5003;63427;49.654;6.596;2022-10-16T13:06:07;4;4;
74880;PMS5003;63427;49.654;6.596;2022-10-16T13:08:33;3;3;
74880;PMS5003;63427;49.654;6.596;2022-10-16T13:10:58;4;4;
74880;PMS5003;63427;49.654;6.596;2022-10-16T13:13:22;4;4;
74880;PMS5003;63427;49.654;6.596;2022-10-16T13:15:52;4;4;
74880;PMS5003;63427;49.654;6.596;2022-10-16T13:18:11;5;5;
74880;PMS5003;63427;49.654;6.596;2022-10-16T13:20:46;3;3;
74880;PMS5003;63427;49.654;6.596;2022-10-16T13:23:04;6;6;
74880;PMS5003;63427;49.654;6.596;2022-10-16T13:25:31;5;5;
74880;PMS5003;63427;49.654;6.596;2022-10-16T13:28:03;5;5;
74880;PMS5003;63427;49.654;6.596;2022-10-16T13:30:20;5;5;
74880;PMS5003;63427;49.654;6.596;2022-10-16T13:32:50;6;6;
74880;PMS5003;63427;49.654;6.596;2022-10-16T13:35:18;8;8;
74880;PMS5003;63427;49.654;6.596;2022-10-16T13:37:36;8;8;
74880;PMS5003;63427;49.654;6.596;2022-10-16T13:40:04;5;5;
74880;PMS5003;63427;49.654;6.596;2022-10-16T13:42:28;5;5;
74880;PMS5003;63427;49.654;6.596;2022-10-16T13:44:55;4;4;
74880;PMS5003;63427;49.654;6.596;2022-10-16T13:47:21;5;4;
74880;PMS5003;63427;49.654;6.596;2022-10-16T13:49:46;6;5;
74880;PMS5003;63427;49.654;6.596;2022-10-16T13:52:21;5;5;
74880;PMS5003;63427;49.654;6.596;2022-10-16T13:54:37;6;6;
74880;PMS5003;63427;49.654;6.596;2022-10-16T13:57:05;7;7;
74880;PMS5003;63427;49.654;6.596;2022-10-16T13:59:37;10;10;
74880;PMS5003;63427;49.654;6.596;2022-10-16T14:01:56;8;8;
74880;PMS5003;63427;49.654;6.596;2022-10-16T14:04:30;8;8;
74880;PMS5003;63427;49.654;6.596;2022-10-16T14:06:51;8;7;
74880;PMS5003;63427;49.654;6.596;2022-10-16T14:14:03;26;26;
74880;PMS5003;63427;49.654;6.596;2022-10-16T14:16:30;31;28;
74880;PMS5003;63427;49.654;6.596;2022-10-16T14:19:04;14;14;
74880;PMS5003;63427;49.654;6.596;2022-10-16T14:21:20;13;13;
74880;PMS5003;63427;49.654;6.596;2022-10-16T14:23:50;6;6;
74880;PMS5003;63427;49.654;6.596;2022-10-16T14:26:40;8;8;
74880;PMS5003;63427;49.654;6.596;2022-10-16T14:33:32;15;15;
74880;PMS5003;63427;49.654;6.596;2022-10-16T14:38:35;8;8;
74880;PMS5003;63427;49.654;6.596;2022-10-16T14:40:46;5;5;
74880;PMS5003;63427;49.654;6.596;2022-10-16T14:45:49;8;8;
74880;PMS5003;63427;49.654;6.596;2022-10-16T14:50:29;6;6;
74880;PMS5003;63427;49.654;6.596;2022-10-16T14:57:39;15;15;
74880;PMS5003;63427;49.654;6.596;2022-10-16T15:00:08;12;12;
74880;PMS5003;63427;49.654;6.596;2022-10-16T15:02:32;11;10;
74880;PMS5003;63427;49.654;6.596;2022-10-16T15:04:59;19;19;
74880;PMS5003;63427;49.654;6.596;2022-10-16T15:07:23;16;16;
74880;PMS5003;63427;49.654;6.596;2022-10-16T15:09:47;9;9;
74880;PMS5003;63427;49.654;6.596;2022-10-16T15:12:13;7;6;
74880;PMS5003;63427;49.654;6.596;2022-10-16T15:14:44;9;8;
74880;PMS5003;63427;49.654;6.596;2022-10-16T15:17:01;9;9;
74880;PMS5003;63427;49.654;6.596;2022-10-16T15:19:29;14;14;
74880;PMS5003;63427;49.654;6.596;2022-10-16T15:21:51;10;9;
74880;PMS5003;63427;49.654;6.596;2022-10-16T15:24:16;8;8;
74880;PMS5003;63427;49.654;6.596;2022-10-16T15:26:42;6;6;
74880;PMS5003;63427;49.654;6.596;2022-10-16T15:39:04;10;10;
74880;PMS5003;63427;49.654;6.596;2022-10-16T15:41:24;9;9;
74880;PMS5003;63427;49.654;6.596;2022-10-16T15:43:44;8;7;
74880;PMS5003;63427;49.654;6.596;2022-10-16T15:46:11;11;11;
74880;PMS5003;63427;49.654;6.596;2022-10-16T15:48:30;10;9;
74880;PMS5003;63427;49.654;6.596;2022-10-16T15:51:04;9;9;
74880;PMS5003;63427;49.654;6.596;2022-10-16T15:53:23;17;17;
74880;PMS5003;63427;49.654;6.596;2022-10-16T15:55:57;13;13;
74880;PMS5003;63427;49.654;6.596;2022-10-16T15:58:14;12;12;
74880;PMS5003;63427;49.654;6.596;2022-10-16T16:00:38;9;8;
74880;PMS5003;63427;49.654;6.596;2022-10-16T16:12:42;8;8;
74880;PMS5003;63427;49.654;6.596;2022-10-16T16:15:07;6;6;
74880;PMS5003;63427;49.654;6.596;2022-10-16T16:34:26;7;7;
74880;PMS5003;63427;49.654;6.596;2022-10-16T17:30:07;16;16;
74880;PMS5003;63427;49.654;6.596;2022-10-16T17:32:32;13;13;
74880;PMS5003;63427;49.654;6.596;2022-10-16T17:34:58;11;11;
74880;PMS5003;63427;49.654;6.596;2022-10-16T17:37:23;13;13;
74880;PMS5003;63427;49.654;6.596;2022-10-16T17:39:51;10;10;
74880;PMS5003;63427;49.654;6.596;2022-10-16T17:42:14;13;12;
74880;PMS5003;63427;49.654;6.596;2022-10-16T17:44:38;24;23;
74880;PMS5003;63427;49.654;6.596;2022-10-16T17:47:04;16;16;
74880;PMS5003;63427;49.654;6.596;2022-10-16T17:49:29;11;11;
74880;PMS5003;63427;49.654;6.596;2022-10-16T17:51:55;12;12;
74880;PMS5003;63427;49.654;6.596;2022-10-16T17:54:21;14;14;
74880;PMS5003;63427;49.654;6.596;2022-10-16T17:56:47;16;16;
74880;PMS5003;63427;49.654;6.596;2022-10-16T17:59:11;15;13;
74880;PMS5003;63427;49.654;6.596;2022-10-16T18:01:37;11;11;
74880;PMS5003;63427;49.654;6.596;2022-10-16T18:04:03;12;11;
74880;PMS5003;63427;49.654;6.596;2022-10-16T18:06:28;10;10;
74880;PMS5003;63427;49.654;6.596;2022-10-16T18:08:53;10;10;
74880;PMS5003;63427;49.654;6.596;2022-10-16T18:11:18;10;10;
74880;PMS5003;63427;49.654;6.596;2022-10-16T18:13:44;21;20;
74880;PMS5003;63427;49.654;6.596;2022-10-16T18:16:10;17;17;
74880;PMS5003;63427;49.654;6.596;2022-10-16T18:18:35;19;17;
74880;PMS5003;63427;49.654;6.596;2022-10-16T18:21:00;15;15;
74880;PMS5003;63427;49.654;6.596;2022-10-16T18:23:25;13;13;
74880;PMS5003;63427;49.654;6.596;2022-10-16T18:25:50;12;12;
74880;PMS5003;63427;49.654;6.596;2022-10-16T18:28:15;12;12;
74880;PMS5003;63427;49.654;6.596;2022-10-16T18:30:41;10;10;
74880;PMS5003;63427;49.654;6.596;2022-10-16T18:33:06;12;12;
74880;PMS5003;63427;49.654;6.596;2022-10-16T18:35:34;12;12;
74880;PMS5003;63427;49.654;6.596;2022-10-16T18:38:02;15;15;
74880;PMS5003;63427;49.654;6.596;2022-10-16T18:40:22;14;14;
74880;PMS5003;63427;49.654;6.596;2022-10-16T18:42:52;21;19;